createdAt,value
2019-05-02T00:01:40.721Z,67.18
2019-05-02T00:04:12.566Z,67.74
2019-05-02T00:06:44.887Z,66.85
2019-05-02T00:09:14.922Z,67.42
2019-05-02T00:11:57.662Z,67.03
2019-05-02T00:14:16.760Z,67.00
2019-05-02T00:16:49.345Z,66.84
2019-05-02T00:19:18.604Z,66.84
2019-05-02T00:21:48.712Z,67.20
2019-05-02T00:24:20.611Z,66.88
2019-05-02T00:26:50.696Z,67.24
2019-05-02T00:29:23.840Z,67.28
2019-05-02T00:31:52.532Z,66.58
2019-05-02T00:34:22.572Z,67.37
2019-05-02T00:36:52.680Z,67.25
2019-05-02T00:39:22.631Z,67.43
2019-05-02T00:41:52.741Z,67.62
2019-05-02T00:44:22.767Z,67.31
2019-05-02T00:46:54.454Z,67.46
2019-05-02T00:49:24.482Z,66.27
2019-05-02T00:51:56.556Z,66.46
2019-05-02T00:54:26.416Z,66.57
2019-05-02T00:56:56.509Z,66.31
2019-05-02T00:59:26.543Z,66.26
2019-05-02T01:01:59.961Z,66.28
2019-05-02T01:04:32.858Z,66.47
2019-05-02T01:07:04.553Z,66.60
2019-05-02T01:09:34.656Z,66.68
2019-05-02T01:12:08.456Z,66.86
2019-05-02T01:14:36.507Z,67.60
2019-05-02T01:17:06.601Z,67.52
2019-05-02T01:19:36.641Z,67.33
2019-05-02T01:22:10.590Z,67.47
2019-05-02T01:24:39.872Z,67.79
2019-05-02T01:27:24.377Z,68.10
2019-05-02T01:29:55.983Z,68.32
2019-05-02T01:32:31.328Z,68.28
2019-05-02T01:35:09.282Z,68.29
2019-05-02T01:37:57.460Z,68.30
2019-05-02T01:40:27.392Z,68.99
2019-05-02T01:42:59.823Z,68.79
2019-05-02T01:45:29.755Z,69.04
2019-05-02T01:47:59.854Z,69.54
2019-05-02T01:50:33.515Z,69.44
2019-05-02T01:53:01.791Z,69.80
2019-05-02T01:55:31.822Z,69.91
2019-05-02T01:58:01.930Z,70.08
2019-05-02T02:00:31.961Z,69.70
2019-05-02T02:03:04.232Z,69.80
2019-05-02T02:05:33.884Z,70.31
2019-05-02T02:08:03.972Z,70.36
2019-05-02T02:10:33.993Z,70.60
2019-05-02T02:13:05.342Z,70.41
2019-05-02T02:15:35.495Z,70.49
2019-05-02T02:18:05.794Z,70.44
2019-05-02T02:20:53.587Z,70.55
2019-05-02T02:23:44.936Z,70.69
2019-05-02T02:26:16.621Z,70.47
2019-05-02T02:28:46.714Z,70.62
2019-05-02T02:31:18.097Z,70.68
2019-05-02T02:33:49.960Z,70.59
2019-05-02T02:36:30.167Z,70.02
2019-05-02T02:38:51.748Z,69.99
2019-05-02T02:41:21.678Z,69.84
2019-05-02T02:44:10.066Z,69.91
2019-05-02T02:46:44.481Z,69.82
2019-05-02T02:49:21.621Z,69.59
2019-05-02T02:51:46.313Z,69.89
2019-05-02T02:54:16.499Z,69.61
2019-05-02T02:56:46.540Z,69.82
2019-05-02T02:59:19.476Z,70.15
2019-05-02T03:01:48.370Z,70.66
2019-05-02T03:04:18.456Z,70.56
2019-05-02T03:06:48.482Z,70.46
2019-05-02T03:09:20.055Z,70.88
2019-05-02T03:11:56.294Z,70.73
2019-05-02T03:14:28.097Z,70.52
2019-05-02T03:16:58.040Z,70.30
2019-05-02T03:19:28.041Z,70.36
2019-05-02T03:22:03.765Z,70.61
2019-05-02T03:24:29.822Z,70.45
2019-05-02T03:27:00.046Z,70.23
2019-05-02T03:29:40.883Z,70.45
2019-05-02T03:32:13.394Z,70.32
2019-05-02T03:34:46.512Z,70.23
2019-05-02T03:37:10.230Z,70.52
2019-05-02T03:39:37.236Z,70.42
2019-05-02T03:42:07.264Z,70.39
2019-05-02T03:44:37.335Z,70.19
2019-05-02T03:47:07.464Z,70.15
2019-05-02T03:49:41.205Z,69.89
2019-05-02T03:52:09.282Z,69.91
2019-05-02T03:54:48.363Z,69.35
2019-05-02T03:57:12.541Z,69.10
2019-05-02T03:59:42.660Z,68.97
2019-05-02T04:02:13.878Z,68.29
2019-05-02T04:04:44.682Z,68.11
2019-05-02T04:07:14.724Z,67.78
2019-05-02T04:09:44.812Z,68.64
2019-05-02T04:12:21.343Z,68.55
2019-05-02T04:14:55.637Z,68.02
2019-05-02T04:17:21.379Z,68.60
2019-05-02T04:19:51.779Z,68.37
2019-05-02T04:22:22.514Z,68.41
2019-05-02T04:24:54.753Z,68.52
2019-05-02T04:27:27.845Z,68.28
2019-05-02T04:29:57.613Z,68.55
2019-05-02T04:32:27.644Z,68.01
2019-05-02T04:34:58.109Z,68.41
2019-05-02T04:37:28.260Z,67.97
2019-05-02T04:40:03.025Z,67.98
2019-05-02T04:42:29.966Z,67.92
2019-05-02T04:45:21.390Z,68.23
2019-05-02T04:47:32.007Z,68.50
2019-05-02T04:50:10.168Z,68.55
2019-05-02T04:52:38.370Z,68.25
2019-05-02T04:55:19.747Z,67.98
2019-05-02T04:57:46.885Z,68.25
2019-05-02T05:00:11.954Z,68.36
2019-05-02T05:02:42.160Z,68.41
2019-05-02T05:05:17.247Z,68.16
2019-05-02T05:07:46.430Z,68.10
2019-05-02T05:10:18.336Z,67.09
2019-05-02T05:12:48.035Z,67.65
2019-05-02T05:15:33.733Z,67.01
2019-05-02T05:17:50.166Z,66.84
2019-05-02T05:20:20.288Z,66.76
2019-05-02T05:22:50.325Z,66.47
2019-05-02T05:25:33.913Z,66.92
2019-05-02T05:28:06.120Z,64.20
2019-05-02T05:30:37.722Z,63.39
2019-05-02T05:33:10.186Z,63.89
2019-05-02T05:35:43.228Z,62.85
2019-05-02T05:38:11.126Z,62.64
2019-05-02T05:40:41.209Z,62.92
2019-05-02T05:43:15.632Z,63.06
2019-05-02T05:45:53.452Z,62.60
2019-05-02T05:48:14.809Z,63.63
2019-05-02T05:50:44.920Z,63.63
2019-05-02T05:53:17.383Z,64.13
2019-05-02T05:55:47.379Z,64.01
2019-05-02T05:58:18.708Z,64.30
2019-05-02T06:00:53.898Z,63.58
2019-05-02T06:03:20.745Z,62.17
2019-05-02T06:05:50.851Z,62.04
2019-05-02T06:08:20.818Z,61.76
2019-05-02T06:10:50.929Z,61.53
2019-05-02T06:13:20.909Z,60.80
2019-05-02T06:16:01.556Z,60.96
2019-05-02T06:18:22.668Z,61.21
2019-05-02T06:20:52.748Z,61.28
2019-05-02T06:23:22.807Z,61.47
2019-05-02T06:25:52.808Z,60.74
2019-05-02T06:28:22.767Z,60.52
2019-05-02T06:30:52.863Z,60.18
2019-05-02T06:33:25.810Z,60.60
2019-05-02T06:36:01.111Z,60.37
2019-05-02T06:38:26.495Z,60.29
2019-05-02T06:40:56.683Z,59.71
2019-05-02T06:43:26.640Z,59.67
2019-05-02T06:45:56.749Z,59.47
2019-05-02T06:48:26.812Z,59.46
2019-05-02T06:50:57.229Z,59.63
2019-05-02T06:53:28.627Z,59.40
2019-05-02T06:55:59.250Z,59.23
2019-05-02T06:58:29.391Z,59.06
2019-05-02T07:00:59.576Z,59.23
2019-05-02T07:03:29.696Z,59.65
2019-05-02T07:06:02.750Z,59.65
2019-05-02T07:08:33.121Z,59.32
2019-05-02T07:11:03.610Z,58.80
2019-05-02T07:13:36.165Z,59.14
2019-05-02T07:16:30.287Z,59.27
2019-05-02T07:19:03.923Z,58.38
2019-05-02T07:21:34.256Z,57.17
2019-05-02T07:24:05.327Z,56.05
2019-05-02T07:26:35.426Z,56.67
2019-05-02T07:29:05.459Z,56.17
2019-05-02T07:31:35.941Z,55.92
2019-05-02T07:34:08.006Z,56.18
2019-05-02T07:36:38.377Z,55.63
2019-05-02T07:39:10.603Z,55.84
2019-05-02T07:41:40.703Z,55.55
2019-05-02T07:44:10.811Z,55.72
2019-05-02T07:46:51.261Z,54.16
2019-05-02T07:49:12.646Z,55.56
2019-05-02T07:51:42.727Z,55.29
2019-05-02T07:54:12.663Z,55.64
2019-05-02T07:56:42.822Z,55.29
2019-05-02T07:59:12.836Z,55.57
2019-05-02T08:01:44.971Z,56.32
2019-05-02T08:04:14.662Z,56.03
2019-05-02T08:06:46.389Z,55.87
2019-05-02T08:09:16.780Z,55.39
2019-05-02T08:11:46.866Z,55.56
2019-05-02T08:14:16.908Z,55.89
2019-05-02T08:16:46.984Z,55.60
2019-05-02T08:19:17.016Z,55.92
2019-05-02T08:21:47.403Z,54.90
2019-05-02T08:24:17.426Z,53.39
2019-05-02T08:26:53.343Z,53.51
2019-05-02T08:29:23.457Z,52.79
2019-05-02T08:31:52.628Z,52.70
2019-05-02T08:34:34.571Z,52.82
2019-05-02T08:37:04.987Z,53.30
2019-05-02T08:39:35.337Z,53.26
2019-05-02T08:42:06.139Z,53.91
2019-05-02T08:44:49.955Z,54.42
2019-05-02T08:47:18.626Z,54.50
2019-05-02T08:49:42.506Z,54.72
2019-05-02T08:52:12.188Z,54.71
2019-05-02T08:54:42.114Z,53.93
2019-05-02T08:57:12.213Z,54.61
2019-05-02T08:59:42.149Z,54.11
2019-05-02T09:02:12.140Z,54.35
2019-05-02T09:04:42.171Z,54.06
2019-05-02T09:07:12.290Z,54.40
2019-05-02T09:09:42.207Z,53.29
2019-05-02T09:12:15.077Z,53.55
2019-05-02T09:14:44.329Z,53.17
2019-05-02T09:17:16.621Z,53.70
2019-05-02T09:19:59.541Z,52.92
2019-05-02T09:22:19.271Z,53.18
2019-05-02T09:24:49.293Z,53.05
2019-05-02T09:27:19.379Z,52.05
2019-05-02T09:29:51.826Z,52.66
2019-05-02T09:32:22.702Z,53.04
2019-05-02T09:34:56.620Z,52.28
2019-05-02T09:37:25.114Z,53.05
2019-05-02T09:39:55.145Z,52.76
2019-05-02T09:42:25.226Z,52.92
2019-05-02T09:44:56.862Z,52.53
2019-05-02T09:47:32.143Z,53.40
2019-05-02T09:50:09.047Z,52.12
2019-05-02T09:52:43.661Z,52.08
2019-05-02T09:55:12.441Z,52.62
2019-05-02T09:57:42.878Z,52.67
2019-05-02T10:00:26.812Z,52.97
2019-05-02T10:02:55.042Z,52.88
2019-05-02T10:05:24.988Z,52.46
2019-05-02T10:07:57.431Z,51.78
2019-05-02T10:10:27.944Z,52.24
2019-05-02T10:12:58.039Z,50.46
2019-05-02T10:15:28.059Z,50.04
2019-05-02T10:18:08.730Z,51.63
2019-05-02T10:20:31.863Z,51.44
2019-05-02T10:23:02.274Z,51.76
2019-05-02T10:25:38.435Z,51.42
2019-05-02T10:28:04.271Z,50.42
2019-05-02T10:30:36.013Z,50.37
2019-05-02T10:33:07.505Z,50.06
2019-05-02T10:35:40.707Z,49.55
2019-05-02T10:38:17.680Z,49.69
2019-05-02T10:40:42.651Z,49.48
2019-05-02T10:43:12.746Z,48.99
2019-05-02T10:45:47.482Z,48.72
2019-05-02T10:48:25.798Z,49.00
2019-05-02T10:50:52.487Z,47.91
2019-05-02T10:53:22.713Z,48.62
2019-05-02T10:55:52.744Z,49.65
2019-05-02T10:58:26.143Z,50.41
2019-05-02T11:00:54.587Z,49.66
2019-05-02T11:03:26.652Z,47.36
2019-05-02T11:06:05.569Z,47.65
2019-05-02T11:08:32.009Z,47.82
2019-05-02T11:11:05.778Z,47.53
2019-05-02T11:13:53.372Z,47.49
2019-05-02T11:16:24.096Z,47.43
2019-05-02T11:18:58.908Z,48.33
2019-05-02T11:21:29.452Z,49.21
2019-05-02T11:24:02.174Z,48.50
2019-05-02T11:26:32.378Z,48.87
2019-05-02T11:29:03.174Z,48.41
2019-05-02T11:31:33.245Z,48.72
2019-05-02T11:34:03.336Z,48.64
2019-05-02T11:36:33.384Z,49.10
2019-05-02T11:39:16.268Z,49.45
2019-05-02T11:41:35.910Z,49.00
2019-05-02T11:44:05.900Z,48.51
2019-05-02T11:46:37.612Z,48.78
2019-05-02T11:49:07.738Z,48.49
2019-05-02T11:51:37.770Z,48.98
2019-05-02T11:54:09.379Z,49.27
2019-05-02T11:56:41.123Z,49.58
2019-05-02T11:59:14.794Z,50.00
2019-05-02T12:01:56.756Z,50.56
2019-05-02T12:04:17.003Z,50.42
2019-05-02T12:06:49.945Z,50.14
2019-05-02T12:09:22.219Z,50.94
2019-05-02T12:11:56.566Z,49.92
2019-05-02T12:14:27.379Z,50.49
2019-05-02T12:16:55.501Z,50.34
2019-05-02T12:19:25.600Z,50.30
2019-05-02T12:21:56.646Z,49.78
2019-05-02T12:24:26.742Z,50.34
2019-05-02T12:26:56.665Z,49.13
2019-05-02T12:29:26.656Z,50.13
2019-05-02T12:31:56.689Z,48.23
2019-05-02T12:34:26.778Z,49.90
2019-05-02T12:36:56.728Z,49.80
2019-05-02T12:39:26.824Z,49.45
2019-05-02T12:41:57.205Z,49.38
2019-05-02T12:44:27.551Z,49.42
2019-05-02T12:46:57.586Z,49.25
2019-05-02T12:49:28.097Z,49.24
2019-05-02T12:51:58.213Z,49.35
2019-05-02T12:54:28.311Z,48.99
2019-05-02T12:56:58.344Z,49.24
2019-05-02T12:59:28.443Z,49.74
2019-05-02T13:02:00.054Z,48.44
2019-05-02T13:04:32.191Z,49.63
2019-05-02T13:07:02.247Z,50.22
2019-05-02T13:09:32.649Z,50.23
2019-05-02T13:12:07.279Z,49.62
2019-05-02T13:14:37.369Z,50.49
2019-05-02T13:17:07.449Z,50.15
2019-05-02T13:19:41.225Z,50.07
2019-05-02T13:22:27.225Z,50.89
2019-05-02T13:24:58.897Z,50.59
2019-05-02T13:27:32.195Z,50.00
2019-05-02T13:30:00.734Z,49.43
2019-05-02T13:32:38.192Z,49.32
2019-05-02T13:35:14.967Z,49.50
2019-05-02T13:37:46.701Z,49.91
2019-05-02T13:40:24.703Z,49.59
2019-05-02T13:42:54.731Z,48.91
2019-05-02T13:45:26.506Z,49.52
2019-05-02T13:47:56.436Z,48.79
2019-05-02T13:50:26.558Z,49.24
2019-05-02T13:52:57.966Z,48.74
2019-05-02T13:55:31.673Z,49.47
2019-05-02T13:58:02.337Z,49.79
2019-05-02T14:00:34.222Z,48.71
2019-05-02T14:03:04.353Z,49.46
2019-05-02T14:05:34.443Z,49.52
2019-05-02T14:08:12.329Z,49.56
2019-05-02T14:10:44.008Z,49.46
2019-05-02T14:13:14.043Z,49.13
2019-05-02T14:15:44.133Z,49.51
2019-05-02T14:18:14.063Z,48.78
2019-05-02T14:20:44.165Z,48.92
2019-05-02T14:23:14.195Z,48.97
2019-05-02T14:25:44.295Z,50.10
2019-05-02T14:28:14.342Z,50.37
2019-05-02T14:30:46.306Z,49.88
2019-05-02T14:33:17.740Z,49.62
2019-05-02T14:35:47.736Z,49.39
2019-05-02T14:38:17.776Z,48.64
2019-05-02T14:40:52.314Z,49.22
2019-05-02T14:43:46.213Z,48.88
2019-05-02T14:46:12.648Z,49.83
2019-05-02T14:48:45.158Z,49.44
2019-05-02T14:51:16.753Z,49.79
2019-05-02T14:53:47.079Z,49.80
2019-05-02T14:56:25.012Z,50.29
2019-05-02T14:58:55.059Z,50.02
2019-05-02T15:01:26.219Z,49.88
2019-05-02T15:03:58.262Z,49.70
2019-05-02T15:06:31.012Z,49.69
2019-05-02T15:09:02.264Z,49.20
2019-05-02T15:11:34.749Z,49.05
2019-05-02T15:14:03.458Z,49.16
2019-05-02T15:16:42.010Z,49.04
2019-05-02T15:19:05.450Z,48.81
2019-05-02T15:21:46.923Z,49.11
2019-05-02T15:24:16.307Z,48.59
2019-05-02T15:26:48.690Z,49.02
2019-05-02T15:29:21.644Z,48.81
2019-05-02T15:32:02.450Z,49.33
2019-05-02T15:34:35.585Z,49.16
2019-05-02T15:37:02.995Z,49.84
2019-05-02T15:42:04.829Z,49.68
2019-05-02T15:44:34.869Z,49.88
2019-05-02T15:47:07.002Z,49.96
2019-05-02T15:49:41.703Z,49.85
2019-05-02T15:52:12.571Z,49.58
2019-05-02T15:54:42.726Z,49.71
2019-05-02T15:57:15.293Z,49.35
2019-05-02T15:59:46.227Z,49.72
2019-05-02T16:02:22.962Z,49.61
2019-05-02T16:04:49.778Z,49.66
2019-05-02T16:07:19.881Z,49.45
2019-05-02T16:09:51.671Z,49.11
2019-05-02T16:12:22.214Z,49.82
2019-05-02T16:14:52.813Z,49.93
2019-05-02T16:17:25.764Z,50.13
2019-05-02T16:19:58.647Z,50.07
2019-05-02T16:22:29.364Z,50.29
2019-05-02T16:25:01.538Z,50.59
2019-05-02T16:27:45.195Z,50.29
2019-05-02T16:30:22.340Z,50.38
2019-05-02T16:33:02.465Z,50.14
2019-05-02T16:35:33.641Z,50.62
2019-05-02T16:38:04.029Z,50.70
2019-05-02T16:40:34.942Z,50.32
2019-05-02T16:43:05.337Z,50.62
2019-05-02T16:45:35.384Z,51.09
2019-05-02T16:48:06.213Z,51.25
2019-05-02T16:50:37.019Z,51.70
2019-05-02T16:53:07.333Z,51.74
2019-05-02T16:55:37.368Z,51.76
2019-05-02T16:58:07.569Z,51.70
2019-05-02T17:00:42.569Z,52.13
2019-05-02T17:03:09.485Z,52.12
2019-05-02T17:05:44.199Z,52.21
2019-05-02T17:08:19.864Z,53.03
2019-05-02T17:10:53.626Z,52.76
2019-05-02T17:13:27.440Z,52.79
2019-05-02T17:15:59.470Z,52.95
2019-05-02T17:18:32.688Z,52.55
2019-05-02T17:21:06.654Z,52.84
2019-05-02T17:27:13.030Z,52.52
2019-05-02T17:29:59.426Z,52.38
2019-05-02T17:32:41.504Z,51.79
2019-05-02T17:35:49.489Z,51.98
2019-05-02T17:37:56.787Z,52.01
2019-05-02T17:40:27.279Z,52.57
2019-05-02T17:43:06.594Z,52.62
2019-05-02T17:45:38.715Z,52.69
2019-05-02T17:48:15.729Z,53.30
2019-05-02T17:51:12.435Z,53.40
2019-05-02T17:53:49.792Z,53.26
2019-05-02T17:59:52.015Z,53.77
2019-05-02T18:02:27.493Z,54.32
2019-05-02T18:04:58.778Z,54.70
2019-05-02T18:07:34.205Z,54.91
2019-05-02T18:10:15.746Z,54.79
2019-05-02T18:12:47.178Z,55.24
2019-05-02T18:15:15.865Z,55.02
2019-05-02T18:17:46.688Z,55.22
2019-05-02T18:20:18.935Z,55.31
2019-05-02T18:22:56.697Z,55.50
2019-05-02T18:26:37.061Z,55.54
2019-05-02T18:28:29.231Z,55.61
2019-05-02T18:31:04.481Z,55.66
2019-05-02T18:33:35.948Z,55.85
2019-05-02T18:36:26.923Z,56.09
2019-05-02T18:39:05.110Z,56.35
2019-05-02T18:41:44.788Z,56.41
2019-05-02T18:44:22.695Z,56.60
2019-05-02T18:47:03.235Z,57.05
2019-05-02T18:50:00.827Z,56.92
2019-05-02T18:52:12.854Z,57.09
2019-05-02T18:54:47.281Z,57.35
2019-05-02T18:57:24.433Z,57.43
2019-05-02T18:59:52.002Z,57.64
2019-05-02T19:02:26.461Z,57.90
2019-05-02T19:04:58.086Z,58.06
2019-05-02T19:07:33.016Z,58.40
2019-05-02T19:10:04.281Z,58.61
2019-05-02T19:12:42.016Z,58.88
2019-05-02T19:15:12.758Z,58.74
2019-05-02T19:17:43.291Z,59.11
2019-05-02T19:20:32.603Z,59.50
2019-05-02T19:26:10.120Z,59.78
2019-05-02T19:29:13.317Z,60.00
2019-05-02T19:31:45.854Z,60.40
2019-05-02T19:34:26.769Z,60.58
2019-05-02T19:37:04.593Z,60.40
2019-05-02T19:39:38.988Z,60.64
2019-05-02T19:42:08.549Z,60.67
2019-05-02T19:44:42.039Z,60.96
2019-05-02T19:47:15.560Z,60.72
2019-05-02T19:49:47.240Z,60.97
2019-05-02T19:55:04.380Z,61.20
2019-05-02T20:00:44.460Z,61.38
2019-05-02T20:03:21.807Z,61.17
2019-05-02T20:05:56.655Z,61.40
2019-05-02T20:08:35.059Z,61.51
2019-05-02T20:11:13.851Z,61.61
2019-05-02T20:14:00.649Z,61.67
2019-05-02T20:16:36.698Z,61.74
2019-05-02T20:19:23.160Z,61.40
2019-05-02T20:22:06.626Z,61.33
2019-05-02T20:24:58.340Z,61.23
2019-05-02T20:27:43.388Z,61.09
2019-05-02T20:30:13.932Z,60.91
2019-05-02T20:32:44.088Z,60.79
2019-05-02T20:35:15.460Z,60.84
2019-05-02T20:37:49.465Z,60.64
2019-05-02T20:40:32.333Z,60.80
2019-05-02T20:43:04.439Z,60.88
2019-05-02T20:45:35.405Z,60.76
2019-05-02T20:48:34.570Z,61.00
2019-05-02T20:51:06.695Z,60.68
2019-05-02T20:53:43.590Z,60.54
2019-05-02T20:56:16.797Z,60.46
2019-05-02T20:59:07.758Z,60.62
2019-05-02T21:01:39.103Z,60.44
2019-05-02T21:04:13.682Z,60.49
2019-05-02T21:06:58.365Z,60.19
2019-05-02T21:09:39.135Z,60.44
2019-05-02T21:12:09.241Z,60.15
2019-05-02T21:14:39.375Z,60.48
2019-05-02T21:17:09.607Z,60.42
2019-05-02T21:19:43.010Z,60.25
2019-05-02T21:22:16.197Z,60.25
2019-05-02T21:24:46.836Z,60.31
2019-05-02T21:27:17.019Z,60.32
2019-05-02T21:29:47.246Z,60.21
2019-05-02T21:32:17.374Z,60.28
2019-05-02T21:34:47.545Z,60.18
2019-05-02T21:37:17.570Z,60.39
2019-05-02T21:39:47.673Z,60.49
2019-05-02T21:42:17.745Z,60.34
2019-05-02T21:44:47.846Z,60.46
2019-05-02T21:47:17.919Z,60.30
2019-05-02T21:50:01.876Z,60.19
2019-05-02T21:52:33.565Z,60.20
2019-05-02T21:55:06.245Z,60.31
2019-05-02T21:57:36.320Z,60.54
2019-05-02T22:00:12.428Z,60.81
2019-05-02T22:02:42.501Z,60.80
2019-05-02T22:05:12.705Z,61.05
2019-05-02T22:07:42.735Z,61.18
2019-05-02T22:10:12.839Z,61.35
2019-05-02T22:12:42.912Z,61.36
2019-05-02T22:15:13.005Z,61.22
2019-05-02T22:17:43.086Z,61.29
2019-05-02T22:20:13.194Z,61.16
2019-05-02T22:22:43.254Z,61.38
2019-05-02T22:25:13.357Z,61.12
2019-05-02T22:27:43.512Z,61.51
2019-05-02T22:30:14.104Z,61.37
2019-05-02T22:32:44.186Z,61.36
2019-05-02T22:35:14.377Z,61.41
2019-05-02T22:37:46.008Z,61.66
2019-05-02T22:40:18.967Z,61.56
2019-05-02T22:42:49.037Z,61.46
2019-05-02T22:45:19.282Z,61.70
2019-05-02T22:47:49.356Z,61.53
2019-05-02T22:50:19.452Z,61.57
2019-05-02T22:52:49.532Z,61.73
2019-05-02T22:55:19.637Z,61.85
2019-05-02T22:57:51.710Z,62.20
2019-05-02T23:00:21.705Z,62.43
2019-05-02T23:02:52.475Z,62.57
2019-05-02T23:05:22.749Z,62.95
2019-05-02T23:07:52.817Z,62.89
2019-05-02T23:10:22.943Z,63.20
2019-05-02T23:12:53.015Z,63.38
2019-05-02T23:15:23.110Z,63.54
2019-05-02T23:17:53.184Z,63.64
2019-05-02T23:20:24.382Z,63.79
2019-05-02T23:22:54.646Z,63.79
2019-05-02T23:25:42.622Z,63.90
2019-05-02T23:28:17.242Z,63.84
2019-05-02T23:30:47.345Z,63.74
2019-05-02T23:33:17.388Z,63.99
2019-05-02T23:35:47.484Z,63.73
2019-05-02T23:38:17.517Z,64.00
2019-05-02T23:40:47.635Z,64.20
2019-05-02T23:43:17.712Z,64.23
2019-05-02T23:45:47.832Z,64.29
2019-05-02T23:48:17.899Z,64.30
2019-05-02T23:50:47.990Z,64.33
2019-05-02T23:53:18.058Z,64.47
2019-05-02T23:55:48.167Z,64.47
2019-05-02T23:58:18.128Z,64.48
